sensor_id;sensor_type;location;lat;lon;timestamp;noise_LAeq;noise_LA_min;noise_LA_max;noise_LA01;noise_LA95
73663;Laerm;61956;52.540;13.382;2022-08-25T00:02:23;39.96;37.60;45.16;;
73663;Laerm;61956;52.540;13.382;2022-08-25T00:04:52;40.52;37.78;48.76;;
73663;Laerm;61956;52.540;13.382;2022-08-25T00:07:24;40.91;38.40;48.70;;
73663;Laerm;61956;52.540;13.382;2022-08-25T00:09:53;42.23;39.16;57.59;;
73663;Laerm;61956;52.540;13.382;2022-08-25T00:12:22;40.99;38.20;43.52;;
73663;Laerm;61956;52.540;13.382;2022-08-25T00:14:51;39.59;36.39;41.88;;
73663;Laerm;61956;52.540;13.382;2022-08-25T00:17:20;38.80;36.51;55.63;;
73663;Laerm;61956;52.540;13.382;2022-08-25T00:19:49;38.74;36.38;42.36;;
73663;Laerm;61956;52.540;13.382;2022-08-25T00:22:18;40.68;37.34;51.24;;
73663;Laerm;61956;52.540;13.382;2022-08-25T00:24:50;40.67;37.30;51.26;;
73663;Laerm;61956;52.540;13.382;2022-08-25T00:27:20;40.04;37.41;44.11;;
73663;Laerm;61956;52.540;13.382;2022-08-25T00:29:49;42.47;37.44;57.03;;
73663;Laerm;61956;52.540;13.382;2022-08-25T00:32:18;42.03;37.92;55.80;;
73663;Laerm;61956;52.540;13.382;2022-08-25T00:34:49;41.84;38.11;50.71;;
73663;Laerm;61956;52.540;13.382;2022-08-25T00:37:18;40.15;37.49;43.12;;
73663;Laerm;61956;52.540;13.382;2022-08-25T00:39:50;41.12;38.26;49.00;;
73663;Laerm;61956;52.540;13.382;2022-08-25T00:42:22;41.39;38.85;49.07;;
73663;Laerm;61956;52.540;13.382;2022-08-25T00:44:51;41.55;38.03;51.19;;
73663;Laerm;61956;52.540;13.382;2022-08-25T00:47:21;40.10;37.78;42.37;;
73663;Laerm;61956;52.540;13.382;2022-08-25T00:49:55;41.63;38.28;53.27;;
73663;Laerm;61956;52.540;13.382;2022-08-25T00:52:30;41.92;38.18;54.80;;
73663;Laerm;61956;52.540;13.382;2022-08-25T00:55:08;42.96;39.66;54.63;;
73663;Laerm;61956;52.540;13.382;2022-08-25T00:57:46;41.69;38.61;52.63;;
73663;Laerm;61956;52.540;13.382;2022-08-25T01:00:21;39.41;36.32;53.37;;
73663;Laerm;61956;52.540;13.382;2022-08-25T01:02:50;40.41;35.84;54.42;;
73663;Laerm;61956;52.540;13.382;2022-08-25T01:05:22;39.61;36.27;50.42;;
73663;Laerm;61956;52.540;13.382;2022-08-25T01:07:52;40.31;37.21;49.64;;
73663;Laerm;61956;52.540;13.382;2022-08-25T01:10:26;40.41;37.50;46.79;;
73663;Laerm;61956;52.540;13.382;2022-08-25T01:13:02;40.21;36.77;50.08;;
73663;Laerm;61956;52.540;13.382;2022-08-25T01:15:33;39.05;36.28;51.85;;
73663;Laerm;61956;52.540;13.382;2022-08-25T01:18:03;39.86;37.32;42.56;;
73663;Laerm;61956;52.540;13.382;2022-08-25T01:20:32;39.96;37.44;49.01;;
73663;Laerm;61956;52.540;13.382;2022-08-25T01:23:04;40.63;38.02;45.27;;
73663;Laerm;61956;52.540;13.382;2022-08-25T01:25:46;41.24;38.82;48.06;;
73663;Laerm;61956;52.540;13.382;2022-08-25T01:28:19;41.64;38.52;48.24;;
73663;Laerm;61956;52.540;13.382;2022-08-25T01:30:48;40.80;37.71;49.10;;
73663;Laerm;61956;52.540;13.382;2022-08-25T01:33:19;40.19;37.92;47.26;;
73663;Laerm;61956;52.540;13.382;2022-08-25T01:35:48;40.64;37.92;50.21;;
73663;Laerm;61956;52.540;13.382;2022-08-25T01:38:20;42.42;38.77;48.62;;
73663;Laerm;61956;52.540;13.382;2022-08-25T01:40:50;42.71;38.64;49.48;;
73663;Laerm;61956;52.540;13.382;2022-08-25T01:43:30;41.17;38.65;44.31;;
73663;Laerm;61956;52.540;13.382;2022-08-25T01:46:04;40.40;37.84;46.79;;
73663;Laerm;61956;52.540;13.382;2022-08-25T01:48:33;39.15;36.36;46.92;;
73663;Laerm;61956;52.540;13.382;2022-08-25T01:51:03;39.73;35.89;55.88;;
73663;Laerm;61956;52.540;13.382;2022-08-25T01:53:34;39.27;36.33;46.90;;
73663;Laerm;61956;52.540;13.382;2022-08-25T01:56:10;40.82;36.97;53.93;;
73663;Laerm;61956;52.540;13.382;2022-08-25T01:58:44;40.59;37.07;50.47;;
73663;Laerm;61956;52.540;13.382;2022-08-25T02:01:17;40.04;37.41;54.52;;
73663;Laerm;61956;52.540;13.382;2022-08-25T02:03:49;39.33;36.33;49.18;;
73663;Laerm;61956;52.540;13.382;2022-08-25T02:06:23;38.85;36.32;43.10;;
73663;Laerm;61956;52.540;13.382;2022-08-25T02:09:01;39.75;37.41;58.89;;
73663;Laerm;61956;52.540;13.382;2022-08-25T02:11:31;40.29;37.83;56.85;;
73663;Laerm;61956;52.540;13.382;2022-08-25T02:14:00;40.58;37.98;47.13;;
73663;Laerm;61956;52.540;13.382;2022-08-25T02:16:33;41.59;38.56;49.91;;
73663;Laerm;61956;52.540;13.382;2022-08-25T02:19:04;41.29;38.30;50.41;;
73663;Laerm;61956;52.540;13.382;2022-08-25T02:21:35;40.64;38.33;42.96;;
73663;Laerm;61956;52.540;13.382;2022-08-25T02:24:07;40.99;38.89;45.43;;
73663;Laerm;61956;52.540;13.382;2022-08-25T02:26:37;41.84;38.30;53.82;;
73663;Laerm;61956;52.540;13.382;2022-08-25T02:29:07;40.69;37.86;45.33;;
73663;Laerm;61956;52.540;13.382;2022-08-25T02:31:37;41.04;37.86;53.86;;
73663;Laerm;61956;52.540;13.382;2022-08-25T02:34:08;41.21;38.03;46.51;;
73663;Laerm;61956;52.540;13.382;2022-08-25T02:36:38;41.71;38.81;49.71;;
73663;Laerm;61956;52.540;13.382;2022-08-25T02:39:11;41.83;39.01;48.26;;
73663;Laerm;61956;52.540;13.382;2022-08-25T02:41:41;41.57;38.03;51.47;;
73663;Laerm;61956;52.540;13.382;2022-08-25T02:44:10;42.17;37.92;52.42;;
73663;Laerm;61956;52.540;13.382;2022-08-25T02:46:39;40.72;38.04;44.66;;
73663;Laerm;61956;52.540;13.382;2022-08-25T02:49:08;41.54;38.24;53.73;;
73663;Laerm;61956;52.540;13.382;2022-08-25T02:51:37;41.62;37.77;47.42;;
73663;Laerm;61956;52.540;13.382;2022-08-25T02:54:10;41.43;38.53;49.80;;
73663;Laerm;61956;52.540;13.382;2022-08-25T02:56:39;41.71;38.53;47.81;;
73663;Laerm;61956;52.540;13.382;2022-08-25T02:59:08;42.81;39.86;52.35;;
73663;Laerm;61956;52.540;13.382;2022-08-25T03:01:37;42.70;39.47;51.20;;
73663;Laerm;61956;52.540;13.382;2022-08-25T03:04:06;42.78;40.44;53.16;;
73663;Laerm;61956;52.540;13.382;2022-08-25T03:06:36;42.34;38.53;49.78;;
73663;Laerm;61956;52.540;13.382;2022-08-25T03:09:05;41.56;38.14;52.29;;
73663;Laerm;61956;52.540;13.382;2022-08-25T03:11:37;41.59;38.33;50.29;;
73663;Laerm;61956;52.540;13.382;2022-08-25T03:14:08;42.65;38.65;52.93;;
73663;Laerm;61956;52.540;13.382;2022-08-25T03:16:37;42.89;39.13;56.07;;
73663;Laerm;61956;52.540;13.382;2022-08-25T03:19:09;43.98;40.78;53.65;;
73663;Laerm;61956;52.540;13.382;2022-08-25T03:21:38;42.83;40.31;47.38;;
73663;Laerm;61956;52.540;13.382;2022-08-25T03:24:08;44.27;40.96;52.46;;
73663;Laerm;61956;52.540;13.382;2022-08-25T03:26:39;42.73;37.58;52.29;;
73663;Laerm;61956;52.540;13.382;2022-08-25T03:29:22;40.81;37.75;45.72;;
73663;Laerm;61956;52.540;13.382;2022-08-25T03:31:53;42.45;38.17;56.41;;
73663;Laerm;61956;52.540;13.382;2022-08-25T03:34:26;42.29;38.37;50.79;;
73663;Laerm;61956;52.540;13.382;2022-08-25T03:36:56;43.70;39.38;61.20;;
73663;Laerm;61956;52.540;13.382;2022-08-25T03:39:26;45.06;41.77;56.21;;
73663;Laerm;61956;52.540;13.382;2022-08-25T03:41:57;45.63;42.06;55.79;;
73663;Laerm;61956;52.540;13.382;2022-08-25T03:44:26;44.92;41.78;53.72;;
73663;Laerm;61956;52.540;13.382;2022-08-25T03:46:55;43.96;41.35;51.33;;
73663;Laerm;61956;52.540;13.382;2022-08-25T03:49:25;44.57;41.61;52.56;;
73663;Laerm;61956;52.540;13.382;2022-08-25T03:51:54;44.08;41.07;50.13;;
73663;Laerm;61956;52.540;13.382;2022-08-25T03:54:25;45.14;42.39;52.28;;
73663;Laerm;61956;52.540;13.382;2022-08-25T03:56:57;44.95;41.47;52.09;;
73663;Laerm;61956;52.540;13.382;2022-08-25T03:59:26;44.45;40.10;48.87;;
73663;Laerm;61956;52.540;13.382;2022-08-25T04:01:55;44.49;39.23;59.40;;
73663;Laerm;61956;52.540;13.382;2022-08-25T04:04:24;44.41;40.16;53.57;;
73663;Laerm;61956;52.540;13.382;2022-08-25T04:06:53;45.64;40.08;58.35;;
73663;Laerm;61956;52.540;13.382;2022-08-25T04:09:24;44.54;40.56;53.21;;
73663;Laerm;61956;52.540;13.382;2022-08-25T04:11:53;43.49;40.04;51.01;;
73663;Laerm;61956;52.540;13.382;2022-08-25T04:14:25;44.69;40.45;55.38;;
73663;Laerm;61956;52.540;13.382;2022-08-25T04:16:54;45.39;40.79;57.33;;
73663;Laerm;61956;52.540;13.382;2022-08-25T04:19:23;44.56;40.37;59.10;;
73663;Laerm;61956;52.540;13.382;2022-08-25T04:21:52;44.89;41.33;58.49;;
73663;Laerm;61956;52.540;13.382;2022-08-25T04:24:21;47.05;41.39;59.16;;
73663;Laerm;61956;52.540;13.382;2022-08-25T04:26:51;45.76;40.26;58.11;;
73663;Laerm;61956;52.540;13.382;2022-08-25T04:29:25;45.63;41.15;56.57;;
73663;Laerm;61956;52.540;13.382;2022-08-25T04:31:54;46.04;41.32;62.65;;
73663;Laerm;61956;52.540;13.382;2022-08-25T04:34:26;46.06;41.73;59.44;;
73663;Laerm;61956;52.540;13.382;2022-08-25T04:36:55;48.32;41.58;64.67;;
73663;Laerm;61956;52.540;13.382;2022-08-25T04:39:24;52.14;41.95;75.32;;
73663;Laerm;61956;52.540;13.382;2022-08-25T04:41:54;51.01;41.60;79.12;;
73663;Laerm;61956;52.540;13.382;2022-08-25T04:44:25;45.90;40.50;56.99;;
73663;Laerm;61956;52.540;13.382;2022-08-25T04:46:55;47.49;41.90;62.96;;
73663;Laerm;61956;52.540;13.382;2022-08-25T04:49:24;46.63;42.09;58.00;;
73663;Laerm;61956;52.540;13.382;2022-08-25T04:51:53;47.48;43.48;57.69;;
73663;Laerm;61956;52.540;13.382;2022-08-25T04:54:23;47.41;42.97;55.69;;
73663;Laerm;61956;52.540;13.382;2022-08-25T04:56:53;46.73;42.94;55.35;;
73663;Laerm;61956;52.540;13.382;2022-08-25T04:59:25;47.56;42.90;63.12;;
73663;Laerm;61956;52.540;13.382;2022-08-25T05:01:54;46.87;42.95;57.58;;
73663;Laerm;61956;52.540;13.382;2022-08-25T05:04:27;45.54;42.21;51.33;;
73663;Laerm;61956;52.540;13.382;2022-08-25T05:06:57;46.17;42.69;57.02;;
73663;Laerm;61956;52.540;13.382;2022-08-25T05:09:26;46.70;42.51;56.17;;
73663;Laerm;61956;52.540;13.382;2022-08-25T05:11:56;47.77;41.85;63.45;;
73663;Laerm;61956;52.540;13.382;2022-08-25T05:14:27;47.64;42.48;61.09;;
73663;Laerm;61956;52.540;13.382;2022-08-25T05:16:57;49.24;42.39;67.60;;
73663;Laerm;61956;52.540;13.382;2022-08-25T05:19:26;49.67;44.99;63.04;;
73663;Laerm;61956;52.540;13.382;2022-08-25T05:21:55;49.78;45.42;67.25;;
73663;Laerm;61956;52.540;13.382;2022-08-25T05:24:25;49.96;45.97;64.72;;
73663;Laerm;61956;52.540;13.382;2022-08-25T05:26:54;49.57;44.97;57.82;;
73663;Laerm;61956;52.540;13.382;2022-08-25T05:29:24;49.97;45.10;65.08;;
73663;Laerm;61956;52.540;13.382;2022-08-25T05:31:55;50.53;44.62;66.61;;
73663;Laerm;61956;52.540;13.382;2022-08-25T05:34:25;49.57;45.35;59.75;;
73663;Laerm;61956;52.540;13.382;2022-08-25T05:36:55;49.90;45.24;59.39;;
73663;Laerm;61956;52.540;13.382;2022-08-25T05:39:25;49.12;43.75;56.46;;
73663;Laerm;61956;52.540;13.382;2022-08-25T05:41:57;48.16;43.71;56.71;;
73663;Laerm;61956;52.540;13.382;2022-08-25T05:44:26;46.81;43.00;56.32;;
73663;Laerm;61956;52.540;13.382;2022-08-25T05:46:58;47.69;42.86;66.27;;
73663;Laerm;61956;52.540;13.382;2022-08-25T05:49:28;47.97;43.02;55.84;;
73663;Laerm;61956;52.540;13.382;2022-08-25T05:51:57;49.46;43.50;59.58;;
73663;Laerm;61956;52.540;13.382;2022-08-25T05:54:26;47.46;42.24;58.95;;
73663;Laerm;61956;52.540;13.382;2022-08-25T05:56:56;47.24;42.60;61.22;;
73663;Laerm;61956;52.540;13.382;2022-08-25T05:59:26;47.95;42.90;56.54;;
73663;Laerm;61956;52.540;13.382;2022-08-25T06:01:55;48.31;43.66;57.04;;
73663;Laerm;61956;52.540;13.382;2022-08-25T06:04:39;49.91;44.36;65.61;;
73663;Laerm;61956;52.540;13.382;2022-08-25T06:07:08;50.13;45.29;62.66;;
73663;Laerm;61956;52.540;13.382;2022-08-25T06:09:38;50.23;45.44;67.66;;
73663;Laerm;61956;52.540;13.382;2022-08-25T06:12:07;49.92;45.54;67.36;;
73663;Laerm;61956;52.540;13.382;2022-08-25T06:14:36;48.96;45.54;62.61;;
73663;Laerm;61956;52.540;13.382;2022-08-25T06:17:05;51.01;43.80;72.62;;
73663;Laerm;61956;52.540;13.382;2022-08-25T06:19:38;49.06;43.59;64.33;;
73663;Laerm;61956;52.540;13.382;2022-08-25T06:22:07;49.27;45.18;59.12;;
73663;Laerm;61956;52.540;13.382;2022-08-25T06:24:36;49.85;45.27;56.07;;
73663;Laerm;61956;52.540;13.382;2022-08-25T06:27:05;49.78;46.38;54.96;;
73663;Laerm;61956;52.540;13.382;2022-08-25T06:29:34;49.60;45.90;54.81;;
73663;Laerm;61956;52.540;13.382;2022-08-25T06:32:04;49.60;44.60;63.28;;
73663;Laerm;61956;52.540;13.382;2022-08-25T06:34:34;48.00;43.50;55.47;;
73663;Laerm;61956;52.540;13.382;2022-08-25T06:37:05;48.53;42.89;62.99;;
73663;Laerm;61956;52.540;13.382;2022-08-25T06:39:34;46.89;42.52;53.15;;
73663;Laerm;61956;52.540;13.382;2022-08-25T06:42:04;47.46;43.12;56.58;;
73663;Laerm;61956;52.540;13.382;2022-08-25T06:44:33;48.27;43.15;55.56;;
73663;Laerm;61956;52.540;13.382;2022-08-25T06:47:03;48.22;44.67;58.97;;
73663;Laerm;61956;52.540;13.382;2022-08-25T06:49:32;50.05;44.74;75.89;;
73663;Laerm;61956;52.540;13.382;2022-08-25T06:52:05;50.09;44.38;72.12;;
73663;Laerm;61956;52.540;13.382;2022-08-25T06:54:34;49.38;44.21;64.08;;
73663;Laerm;61956;52.540;13.382;2022-08-25T06:57:05;48.27;43.88;59.23;;
73663;Laerm;61956;52.540;13.382;2022-08-25T06:59:35;48.69;44.70;56.07;;
73663;Laerm;61956;52.540;13.382;2022-08-25T07:02:06;48.89;44.29;59.61;;
73663;Laerm;61956;52.540;13.382;2022-08-25T07:04:35;47.76;44.01;56.91;;
73663;Laerm;61956;52.540;13.382;2022-08-25T07:07:07;48.10;42.97;62.29;;
73663;Laerm;61956;52.540;13.382;2022-08-25T07:09:36;47.60;41.42;64.93;;
73663;Laerm;61956;52.540;13.382;2022-08-25T07:12:06;46.78;42.51;58.43;;
73663;Laerm;61956;52.540;13.382;2022-08-25T07:14:36;47.42;42.61;58.35;;
73663;Laerm;61956;52.540;13.382;2022-08-25T07:17:05;48.39;43.24;57.39;;
73663;Laerm;61956;52.540;13.382;2022-08-25T07:19:34;47.56;43.22;55.99;;
73663;Laerm;61956;52.540;13.382;2022-08-25T07:22:07;48.40;43.48;60.37;;
73663;Laerm;61956;52.540;13.382;2022-08-25T07:24:36;48.62;43.15;61.76;;
73663;Laerm;61956;52.540;13.382;2022-08-25T07:27:06;46.70;42.38;57.40;;
73663;Laerm;61956;52.540;13.382;2022-08-25T07:29:35;47.35;43.04;56.11;;
73663;Laerm;61956;52.540;13.382;2022-08-25T07:32:05;48.19;43.65;56.13;;
73663;Laerm;61956;52.540;13.382;2022-08-25T07:34:34;47.97;41.74;64.03;;
73663;Laerm;61956;52.540;13.382;2022-08-25T07:37:20;47.95;42.37;60.51;;
73663;Laerm;61956;52.540;13.382;2022-08-25T07:39:50;48.30;43.47;55.35;;
73663;Laerm;61956;52.540;13.382;2022-08-25T07:42:20;48.04;43.83;66.91;;
73663;Laerm;61956;52.540;13.382;2022-08-25T07:44:50;47.23;43.28;57.44;;
73663;Laerm;61956;52.540;13.382;2022-08-25T07:47:19;47.77;43.10;53.92;;
73663;Laerm;61956;52.540;13.382;2022-08-25T07:49:48;47.73;43.51;53.37;;
73663;Laerm;61956;52.540;13.382;2022-08-25T07:52:20;47.65;43.84;54.34;;
73663;Laerm;61956;52.540;13.382;2022-08-25T07:54:49;48.04;42.62;57.86;;
73663;Laerm;61956;52.540;13.382;2022-08-25T07:57:18;47.61;43.79;54.45;;
73663;Laerm;61956;52.540;13.382;2022-08-25T07:59:49;48.54;45.14;56.03;;
73663;Laerm;61956;52.540;13.382;2022-08-25T08:02:19;49.78;45.40;56.29;;
73663;Laerm;61956;52.540;13.382;2022-08-25T08:04:52;48.86;44.08;55.27;;
73663;Laerm;61956;52.540;13.382;2022-08-25T08:07:26;48.78;44.66;56.84;;
73663;Laerm;61956;52.540;13.382;2022-08-25T08:09:57;48.07;43.81;55.23;;
73663;Laerm;61956;52.540;13.382;2022-08-25T08:12:27;49.18;44.51;55.11;;
73663;Laerm;61956;52.540;13.382;2022-08-25T08:14:57;48.27;44.30;54.57;;
73663;Laerm;61956;52.540;13.382;2022-08-25T08:17:27;50.12;46.26;62.76;;
73663;Laerm;61956;52.540;13.382;2022-08-25T08:19:57;49.27;44.25;55.52;;
73663;Laerm;61956;52.540;13.382;2022-08-25T08:22:28;48.51;44.11;57.69;;
73663;Laerm;61956;52.540;13.382;2022-08-25T08:24:58;48.63;43.84;58.03;;
73663;Laerm;61956;52.540;13.382;2022-08-25T08:27:28;47.43;43.42;54.15;;
73663;Laerm;61956;52.540;13.382;2022-08-25T08:29:57;47.82;43.78;56.31;;
73663;Laerm;61956;52.540;13.382;2022-08-25T08:32:26;49.09;44.73;57.98;;
73663;Laerm;61956;52.540;13.382;2022-08-25T08:34:55;49.60;45.10;57.22;;
73663;Laerm;61956;52.540;13.382;2022-08-25T08:37:27;49.53;44.89;68.17;;
73663;Laerm;61956;52.540;13.382;2022-08-25T08:39:57;49.69;44.43;58.11;;
73663;Laerm;61956;52.540;13.382;2022-08-25T08:42:42;48.38;44.76;56.33;;
73663;Laerm;61956;52.540;13.382;2022-08-25T08:45:32;48.64;44.41;56.37;;
73663;Laerm;61956;52.540;13.382;2022-08-25T08:48:45;48.78;44.40;66.07;;
73663;Laerm;61956;52.540;13.382;2022-08-25T08:51:21;48.39;45.11;52.94;;
73663;Laerm;61956;52.540;13.382;2022-08-25T08:53:58;49.35;44.88;68.04;;
73663;Laerm;61956;52.540;13.382;2022-08-25T08:56:37;48.99;45.82;55.63;;
73663;Laerm;61956;52.540;13.382;2022-08-25T08:59:12;48.65;44.41;55.74;;
73663;Laerm;61956;52.540;13.382;2022-08-25T09:01:49;49.26;45.07;58.47;;
73663;Laerm;61956;52.540;13.382;2022-08-25T09:04:31;48.83;43.78;58.00;;
73663;Laerm;61956;52.540;13.382;2022-08-25T09:07:05;48.68;44.54;57.86;;
73663;Laerm;61956;52.540;13.382;2022-08-25T09:09:42;50.58;45.52;64.55;;
73663;Laerm;61956;52.540;13.382;2022-08-25T09:12:20;48.76;44.89;54.87;;
73663;Laerm;61956;52.540;13.382;2022-08-25T09:15:06;49.42;45.94;60.30;;
73663;Laerm;61956;52.540;13.382;2022-08-25T09:17:55;49.06;44.89;56.90;;
73663;Laerm;61956;52.540;13.382;2022-08-25T09:20:44;48.70;44.96;59.61;;
73663;Laerm;61956;52.540;13.382;2022-08-25T09:23:32;48.66;45.22;54.57;;
73663;Laerm;61956;52.540;13.382;2022-08-25T09:26:24;48.35;44.67;58.41;;
73663;Laerm;61956;52.540;13.382;2022-08-25T09:29:01;48.42;44.68;61.04;;
73663;Laerm;61956;52.540;13.382;2022-08-25T09:31:37;49.07;45.88;57.33;;
73663;Laerm;61956;52.540;13.382;2022-08-25T09:34:11;49.46;45.16;59.48;;
73663;Laerm;61956;52.540;13.382;2022-08-25T09:36:41;50.54;45.64;66.76;;
73663;Laerm;61956;52.540;13.382;2022-08-25T09:39:12;49.17;45.23;57.10;;
73663;Laerm;61956;52.540;13.382;2022-08-25T09:41:47;49.25;45.47;57.49;;
73663;Laerm;61956;52.540;13.382;2022-08-25T09:44:21;49.47;45.54;60.02;;
73663;Laerm;61956;52.540;13.382;2022-08-25T09:47:02;49.83;45.80;56.30;;
73663;Laerm;61956;52.540;13.382;2022-08-25T09:49:39;49.87;46.29;57.33;;
73663;Laerm;61956;52.540;13.382;2022-08-25T09:52:33;50.26;45.92;59.66;;
73663;Laerm;61956;52.540;13.382;2022-08-25T09:55:28;49.92;45.97;57.95;;
73663;Laerm;61956;52.540;13.382;2022-08-25T09:58:17;49.66;45.67;60.26;;
73663;Laerm;61956;52.540;13.382;2022-08-25T10:01:11;50.24;46.07;62.11;;
73663;Laerm;61956;52.540;13.382;2022-08-25T10:03:59;50.12;46.24;56.94;;
73663;Laerm;61956;52.540;13.382;2022-08-25T10:06:35;49.29;45.80;56.38;;
73663;Laerm;61956;52.540;13.382;2022-08-25T10:09:07;49.25;45.91;56.97;;
73663;Laerm;61956;52.540;13.382;2022-08-25T10:11:42;49.45;45.99;54.77;;
73663;Laerm;61956;52.540;13.382;2022-08-25T10:14:33;48.43;45.19;55.91;;
73663;Laerm;61956;52.540;13.382;2022-08-25T10:17:16;48.77;45.55;56.09;;
73663;Laerm;61956;52.540;13.382;2022-08-25T10:19:50;48.78;44.78;62.84;;
73663;Laerm;61956;52.540;13.382;2022-08-25T10:22:23;48.06;44.66;62.59;;
73663;Laerm;61956;52.540;13.382;2022-08-25T10:24:58;48.39;44.55;57.95;;
73663;Laerm;61956;52.540;13.382;2022-08-25T10:27:37;49.91;44.53;68.02;;
73663;Laerm;61956;52.540;13.382;2022-08-25T10:30:19;49.86;44.72;68.74;;
73663;Laerm;61956;52.540;13.382;2022-08-25T10:33:12;49.82;45.05;64.52;;
73663;Laerm;61956;52.540;13.382;2022-08-25T10:35:57;49.76;44.77;66.48;;
73663;Laerm;61956;52.540;13.382;2022-08-25T10:38:37;52.11;44.76;68.26;;
73663;Laerm;61956;52.540;13.382;2022-08-25T10:41:25;49.35;43.89;60.17;;
73663;Laerm;61956;52.540;13.382;2022-08-25T10:44:14;48.47;44.73;61.34;;
73663;Laerm;61956;52.540;13.382;2022-08-25T10:47:33;52.10;45.50;63.72;;
73663;Laerm;61956;52.540;13.382;2022-08-25T10:50:17;51.89;45.89;66.03;;
73663;Laerm;61956;52.540;13.382;2022-08-25T10:53:09;52.61;45.40;67.31;;
73663;Laerm;61956;52.540;13.382;2022-08-25T10:55:50;50.27;44.96;65.92;;
73663;Laerm;61956;52.540;13.382;2022-08-25T10:58:58;50.56;44.84;64.30;;
73663;Laerm;61956;52.540;13.382;2022-08-25T11:01:46;48.40;44.41;62.76;;
73663;Laerm;61956;52.540;13.382;2022-08-25T11:04:26;49.75;45.35;62.80;;
73663;Laerm;61956;52.540;13.382;2022-08-25T11:07:03;49.41;45.37;61.65;;
73663;Laerm;61956;52.540;13.382;2022-08-25T11:09:40;49.19;45.22;60.92;;
73663;Laerm;61956;52.540;13.382;2022-08-25T11:12:20;47.80;44.45;55.06;;
73663;Laerm;61956;52.540;13.382;2022-08-25T11:14:56;48.11;44.44;56.96;;
73663;Laerm;61956;52.540;13.382;2022-08-25T11:17:33;48.68;45.04;60.82;;
73663;Laerm;61956;52.540;13.382;2022-08-25T11:20:14;51.00;45.57;69.44;;
73663;Laerm;61956;52.540;13.382;2022-08-25T11:22:50;50.07;45.07;61.41;;
73663;Laerm;61956;52.540;13.382;2022-08-25T11:25:26;50.62;45.96;56.48;;
73663;Laerm;61956;52.540;13.382;2022-08-25T11:28:05;54.25;45.77;62.86;;
73663;Laerm;61956;52.540;13.382;2022-08-25T11:30:36;49.04;44.61;60.40;;
73663;Laerm;61956;52.540;13.382;2022-08-25T11:33:06;49.04;45.56;60.90;;
73663;Laerm;61956;52.540;13.382;2022-08-25T11:35:46;50.62;45.84;58.06;;
73663;Laerm;61956;52.540;13.382;2022-08-25T11:38:34;50.75;45.65;76.42;;
73663;Laerm;61956;52.540;13.382;2022-08-25T11:41:22;49.15;44.97;58.58;;
73663;Laerm;61956;52.540;13.382;2022-08-25T11:44:18;49.65;44.52;64.75;;
73663;Laerm;61956;52.540;13.382;2022-08-25T11:47:24;49.03;45.42;56.18;;
73663;Laerm;61956;52.540;13.382;2022-08-25T11:50:02;49.17;44.95;59.25;;
73663;Laerm;61956;52.540;13.382;2022-08-25T11:52:48;49.31;45.00;65.87;;
73663;Laerm;61956;52.540;13.382;2022-08-25T11:55:46;49.77;45.30;64.25;;
73663;Laerm;61956;52.540;13.382;2022-08-25T11:58:37;48.84;45.10;56.34;;
73663;Laerm;61956;52.540;13.382;2022-08-25T12:01:13;48.60;45.16;60.19;;
73663;Laerm;61956;52.540;13.382;2022-08-25T12:04:41;48.73;45.11;58.74;;
73663;Laerm;61956;52.540;13.382;2022-08-25T12:07:25;48.17;44.09;58.19;;
73663;Laerm;61956;52.540;13.382;2022-08-25T12:10:16;48.96;44.98;62.14;;
73663;Laerm;61956;52.540;13.382;2022-08-25T12:13:04;50.10;45.61;63.05;;
73663;Laerm;61956;52.540;13.382;2022-08-25T12:15:59;48.91;45.21;62.32;;
73663;Laerm;61956;52.540;13.382;2022-08-25T12:18:44;49.33;45.88;63.12;;
73663;Laerm;61956;52.540;13.382;2022-08-25T12:21:31;51.03;45.74;76.42;;
73663;Laerm;61956;52.540;13.382;2022-08-25T12:24:17;50.39;46.36;68.28;;
73663;Laerm;61956;52.540;13.382;2022-08-25T12:26:56;50.67;46.42;57.90;;
73663;Laerm;61956;52.540;13.382;2022-08-25T12:29:32;50.13;46.41;65.68;;
73663;Laerm;61956;52.540;13.382;2022-08-25T12:32:34;49.76;46.46;57.94;;
73663;Laerm;61956;52.540;13.382;2022-08-25T12:35:27;49.48;46.46;63.80;;
73663;Laerm;61956;52.540;13.382;2022-08-25T12:38:08;49.40;45.87;57.46;;
73663;Laerm;61956;52.540;13.382;2022-08-25T12:40:56;49.38;46.24;60.74;;
73663;Laerm;61956;52.540;13.382;2022-08-25T12:43:31;49.47;46.20;57.54;;
73663;Laerm;61956;52.540;13.382;2022-08-25T12:46:32;50.15;45.39;60.49;;
73663;Laerm;61956;52.540;13.382;2022-08-25T12:49:09;49.56;46.04;55.98;;
73663;Laerm;61956;52.540;13.382;2022-08-25T12:51:53;52.00;45.84;65.75;;
73663;Laerm;61956;52.540;13.382;2022-08-25T12:54:41;49.23;45.19;56.62;;
73663;Laerm;61956;52.540;13.382;2022-08-25T12:57:32;49.10;45.68;56.31;;
73663;Laerm;61956;52.540;13.382;2022-08-25T13:00:15;48.57;45.28;56.43;;
73663;Laerm;61956;52.540;13.382;2022-08-25T13:06:26;49.85;45.69;61.68;;
73663;Laerm;61956;52.540;13.382;2022-08-25T13:12:39;57.40;45.61;76.41;;
73663;Laerm;61956;52.540;13.382;2022-08-25T13:15:26;49.91;45.89;59.65;;
73663;Laerm;61956;52.540;13.382;2022-08-25T13:18:13;49.31;45.22;56.88;;
73663;Laerm;61956;52.540;13.382;2022-08-25T13:20:42;50.42;45.66;66.76;;
73663;Laerm;61956;52.540;13.382;2022-08-25T13:23:21;51.40;45.99;67.74;;
73663;Laerm;61956;52.540;13.382;2022-08-25T13:25:52;50.02;45.26;64.07;;
73663;Laerm;61956;52.540;13.382;2022-08-25T13:28:31;49.66;46.15;56.80;;
73663;Laerm;61956;52.540;13.382;2022-08-25T13:31:06;51.05;45.92;68.95;;
73663;Laerm;61956;52.540;13.382;2022-08-25T13:33:38;49.61;45.81;58.94;;
73663;Laerm;61956;52.540;13.382;2022-08-25T13:36:16;49.88;45.48;60.83;;
73663;Laerm;61956;52.540;13.382;2022-08-25T13:39:11;49.28;45.07;59.41;;
73663;Laerm;61956;52.540;13.382;2022-08-25T13:41:45;49.65;45.18;63.98;;
73663;Laerm;61956;52.540;13.382;2022-08-25T13:44:21;49.99;44.96;62.04;;
73663;Laerm;61956;52.540;13.382;2022-08-25T13:47:05;49.08;45.40;62.08;;
73663;Laerm;61956;52.540;13.382;2022-08-25T13:49:37;49.10;45.39;62.75;;
73663;Laerm;61956;52.540;13.382;2022-08-25T13:52:07;50.68;45.40;58.68;;
73663;Laerm;61956;52.540;13.382;2022-08-25T13:54:44;50.30;45.92;62.07;;
73663;Laerm;61956;52.540;13.382;2022-08-25T13:57:21;51.67;45.63;67.34;;
73663;Laerm;61956;52.540;13.382;2022-08-25T13:59:59;49.85;45.48;63.93;;
73663;Laerm;61956;52.540;13.382;2022-08-25T14:02:44;49.62;45.39;65.65;;
73663;Laerm;61956;52.540;13.382;2022-08-25T14:05:29;49.84;46.19;60.34;;
73663;Laerm;61956;52.540;13.382;2022-08-25T14:07:59;49.66;45.42;60.71;;
73663;Laerm;61956;52.540;13.382;2022-08-25T14:10:38;50.41;45.64;70.47;;
73663;Laerm;61956;52.540;13.382;2022-08-25T14:13:15;51.03;45.71;63.14;;
73663;Laerm;61956;52.540;13.382;2022-08-25T14:15:47;50.61;45.00;63.55;;
73663;Laerm;61956;52.540;13.382;2022-08-25T14:18:20;51.09;45.39;66.98;;
73663;Laerm;61956;52.540;13.382;2022-08-25T14:20:53;50.40;45.45;67.12;;
73663;Laerm;61956;52.540;13.382;2022-08-25T14:23:25;50.61;45.84;65.13;;